map of PAZ home
PAZ - Airport
Location
City:  Poza Rica, Veracruz, México
Name:El Tajín National
ICAO:MMPA
IATA:PAZ

Details
Type:Airport (Aerodrome, Airfield)
Use:Public/Civil
Latitude:20°36'10"N (20.602671)
Longitude:97°27'39"W (-97.460838)
Datum:other
Elevation:497 ft (151 m)
Variation:3.78°E (WMM2015 magnetic declination)
-0.12° annual change
Runways:1
Longest:5906 × 148 ft (1800 × 45 m), paved

Time
Time Zone:UTC-6 (DST-5)
Local Time:

Weather
METAR:MMPA 161344Z 26004KT 4SM BKN280 11/09 A3032 RMK 8/008 HZY
TAF:MMPA 160513Z 1606/1706 00000KT 6SM HZ SKC
TEMPO 1611/1615 1SM BR BKN010
FM161800 03010KT 6SM HZ SKC
FM170300 03005KT 6SM HZ SKC

Related Locations
Nearby:
Farthest:CCK: 11333 mi / 18239 km
West Island (Pulau Panjang) [Cocos (Keeling) Islands], CC

Find:

   beyond  
but within

Other Information
Maps:
NOTAMs:
Links:
Sources:

  
  • flag of México
  • flag of Veracruz
  

Sectional Chart

Flight Planning
at skyvector.com

Satellite Image

Google Maps Satellite view

 

Copyright © 2004-2018 Karl L. Swartz. All rights reserved.
The Great Circle Mapper name and logo are trademarks of the Great Circle Mapper.
All other trademarks mentioned herein belong to their respective owners.
Please see credits for attibutions and further copyright information.

  Follow gcmap on Facebook Follow gcmap on Twitter Follow gcmap on Google+ GCmap on LinkedIn

hCard Microformat

Geo Microformat